createdAt,value
2018-01-29T00:01:58.274Z,9.75
2018-01-29T00:04:25.837Z,10.07
2018-01-29T00:06:53.390Z,13.95
2018-01-29T00:09:21.749Z,10.13
2018-01-29T00:11:49.210Z,11.07
2018-01-29T00:14:17.534Z,11.77
2018-01-29T00:16:45.560Z,13.00
2018-01-29T00:19:13.210Z,9.60
2018-01-29T00:21:40.808Z,10.85
2018-01-29T00:24:08.398Z,10.20
2018-01-29T00:26:36.135Z,12.30
2018-01-29T00:29:03.766Z,11.10
2018-01-29T00:31:31.299Z,9.55
2018-01-29T00:33:58.864Z,10.40
2018-01-29T00:36:26.595Z,11.15
2018-01-29T00:38:54.139Z,11.07
2018-01-29T00:41:21.647Z,8.05
2018-01-29T00:43:50.039Z,12.05
2018-01-29T00:46:18.377Z,9.60
2018-01-29T00:48:46.201Z,8.75
2018-01-29T00:51:13.781Z,9.13
2018-01-29T00:53:41.338Z,8.98
2018-01-29T00:56:09.209Z,10.13
2018-01-29T00:58:36.853Z,8.48
2018-01-29T01:01:04.465Z,8.43
2018-01-29T01:03:32.083Z,9.50
2018-01-29T01:06:00.484Z,9.90
2018-01-29T01:08:28.154Z,8.70
2018-01-29T01:10:55.688Z,8.32
2018-01-29T01:13:23.340Z,7.18
2018-01-29T01:15:52.690Z,8.82
2018-01-29T01:18:20.650Z,10.45
2018-01-29T01:20:48.238Z,7.72
2018-01-29T01:23:15.831Z,6.78
2018-01-29T01:25:43.950Z,8.73
2018-01-29T01:28:11.531Z,7.40
2018-01-29T01:30:39.124Z,9.25
2018-01-29T01:33:06.693Z,8.85
2018-01-29T01:38:08.185Z,8.95
2018-01-29T01:40:35.711Z,8.35
2018-01-29T01:43:03.261Z,8.10
2018-01-29T01:45:30.958Z,8.23
2018-01-29T01:47:58.557Z,9.57
2018-01-29T01:50:26.146Z,9.45
2018-01-29T01:52:53.695Z,9.43
2018-01-29T01:55:21.366Z,9.63
2018-01-29T01:57:48.916Z,8.73
2018-01-29T02:00:17.269Z,9.65
2018-01-29T02:02:44.808Z,9.05
2018-01-29T02:05:12.555Z,7.55
2018-01-29T02:07:40.133Z,7.22
2018-01-29T02:10:07.707Z,7.43
2018-01-29T02:12:35.262Z,8.85
2018-01-29T02:15:02.846Z,7.20
2018-01-29T02:17:30.464Z,8.88
2018-01-29T02:19:57.948Z,6.90
2018-01-29T02:22:26.599Z,10.20
2018-01-29T02:24:54.134Z,8.88
2018-01-29T02:27:21.760Z,10.52
2018-01-29T02:29:49.482Z,8.23
2018-01-29T02:32:17.080Z,9.27
2018-01-29T02:34:44.857Z,6.87
2018-01-29T02:37:12.458Z,10.40
2018-01-29T02:39:40.267Z,9.25
2018-01-29T02:42:07.812Z,9.10
2018-01-29T02:44:35.399Z,6.22
2018-01-29T02:47:03.798Z,7.85
2018-01-29T02:49:31.378Z,9.23
2018-01-29T02:51:58.907Z,8.63
2018-01-29T02:54:26.461Z,5.87
2018-01-29T02:56:54.274Z,5.90
2018-01-29T02:59:21.959Z,7.82
2018-01-29T03:01:50.010Z,6.22
2018-01-29T03:04:17.552Z,9.57
2018-01-29T03:06:45.154Z,7.60
2018-01-29T03:09:13.346Z,7.18
2018-01-29T03:11:40.866Z,8.48
2018-01-29T03:14:08.527Z,6.53
2018-01-29T03:16:36.191Z,8.18
2018-01-29T03:19:04.039Z,6.72
2018-01-29T03:21:31.597Z,9.63
2018-01-29T03:23:59.956Z,7.40
2018-01-29T03:26:28.500Z,6.72
2018-01-29T03:28:56.161Z,7.90
2018-01-29T03:31:24.026Z,8.00
2018-01-29T03:33:51.668Z,8.05
2018-01-29T03:36:19.258Z,8.57
2018-01-29T03:38:46.793Z,7.15
2018-01-29T03:41:14.415Z,7.65
2018-01-29T03:43:42.020Z,9.57
2018-01-29T03:46:10.280Z,6.85
2018-01-29T03:48:37.925Z,10.20
2018-01-29T03:51:05.720Z,10.30
2018-01-29T03:53:33.302Z,8.70
2018-01-29T03:56:00.843Z,8.05
2018-01-29T03:58:28.502Z,8.68
2018-01-29T04:00:56.154Z,8.98
2018-01-29T04:03:23.726Z,9.27
2018-01-29T04:05:51.416Z,9.20
2018-01-29T04:08:18.880Z,8.40
2018-01-29T04:10:46.593Z,8.40
2018-01-29T04:13:14.178Z,11.15
2018-01-29T04:15:41.798Z,8.65
2018-01-29T04:18:09.437Z,8.18
2018-01-29T04:20:37.895Z,5.80
2018-01-29T04:23:05.540Z,9.13
2018-01-29T04:25:33.168Z,8.50
2018-01-29T04:28:00.791Z,7.62
2018-01-29T04:30:28.378Z,9.00
2018-01-29T04:32:56.732Z,7.60
2018-01-29T04:35:24.322Z,9.15
2018-01-29T04:37:53.277Z,9.45
2018-01-29T04:40:20.840Z,7.00
2018-01-29T04:42:49.358Z,10.32
2018-01-29T04:45:17.779Z,8.10
2018-01-29T04:47:45.503Z,8.30
2018-01-29T04:50:13.452Z,8.02
2018-01-29T04:52:41.109Z,7.18
2018-01-29T04:55:08.655Z,7.18
2018-01-29T04:57:36.231Z,9.50
2018-01-29T05:00:03.914Z,8.00
2018-01-29T05:02:31.535Z,8.80
2018-01-29T05:04:59.088Z,8.45
2018-01-29T05:07:26.626Z,9.20
2018-01-29T05:09:54.454Z,8.30
2018-01-29T05:12:22.835Z,7.18
2018-01-29T05:14:50.430Z,7.43
2018-01-29T05:17:18.040Z,8.75
2018-01-29T05:19:46.389Z,9.55
2018-01-29T05:22:13.976Z,7.60
2018-01-29T05:24:42.311Z,6.35
2018-01-29T05:27:09.822Z,6.28
2018-01-29T05:29:37.297Z,8.48
2018-01-29T05:32:04.972Z,8.18
2018-01-29T05:34:32.598Z,7.68
2018-01-29T05:37:02.073Z,8.30
2018-01-29T05:39:29.746Z,6.65
2018-01-29T05:41:57.318Z,6.32
2018-01-29T05:44:25.154Z,8.30
2018-01-29T05:46:53.320Z,8.50
2018-01-29T05:49:20.883Z,7.78
2018-01-29T05:51:48.494Z,6.68
2018-01-29T05:54:16.008Z,7.85
2018-01-29T05:56:43.676Z,7.32
2018-01-29T05:59:11.629Z,7.45
2018-01-29T06:01:39.055Z,9.57
2018-01-29T06:04:06.924Z,8.05
2018-01-29T06:06:34.563Z,7.40
2018-01-29T06:09:02.985Z,7.28
2018-01-29T06:11:30.529Z,7.72
2018-01-29T06:13:58.155Z,8.55
2018-01-29T06:16:25.755Z,7.82
2018-01-29T06:18:53.404Z,8.15
2018-01-29T06:21:21.013Z,7.90
2018-01-29T06:23:48.733Z,7.50
2018-01-29T06:26:16.826Z,10.00
2018-01-29T06:28:44.894Z,8.70
2018-01-29T06:31:12.471Z,6.07
2018-01-29T06:33:40.078Z,8.02
2018-01-29T06:36:08.402Z,6.85
2018-01-29T06:38:36.098Z,7.97
2018-01-29T06:41:03.665Z,7.00
2018-01-29T06:43:32.106Z,8.38
2018-01-29T06:46:00.173Z,6.97
2018-01-29T06:48:27.706Z,8.20
2018-01-29T06:50:55.373Z,7.30
2018-01-29T06:53:22.880Z,8.73
2018-01-29T06:55:50.589Z,9.18
2018-01-29T06:58:18.470Z,7.93
2018-01-29T07:00:46.163Z,6.80
2018-01-29T07:03:13.873Z,8.55
2018-01-29T07:05:42.399Z,8.80
2018-01-29T07:08:09.990Z,7.62
2018-01-29T07:10:37.678Z,8.02
2018-01-29T07:13:06.090Z,6.97
2018-01-29T07:15:34.798Z,6.72
2018-01-29T07:18:02.429Z,6.65
2018-01-29T07:20:30.154Z,6.72
2018-01-29T07:22:58.244Z,7.32
2018-01-29T07:25:25.843Z,7.10
2018-01-29T07:27:53.535Z,7.70
2018-01-29T07:30:21.967Z,7.05
2018-01-29T07:32:49.757Z,6.82
2018-01-29T07:35:17.325Z,6.40
2018-01-29T07:37:44.937Z,7.87
2018-01-29T07:40:12.786Z,7.80
2018-01-29T07:42:40.399Z,6.65
2018-01-29T07:45:08.016Z,5.82
2018-01-29T07:47:35.603Z,8.05
2018-01-29T07:50:03.670Z,7.78
2018-01-29T07:52:32.109Z,7.25
2018-01-29T07:55:00.032Z,7.00
2018-01-29T07:57:27.767Z,5.55
2018-01-29T07:59:55.377Z,7.15
2018-01-29T08:02:23.018Z,7.53
2018-01-29T08:04:50.569Z,7.55
2018-01-29T08:07:18.132Z,7.90
2018-01-29T08:09:45.701Z,4.47
2018-01-29T08:12:13.257Z,7.03
2018-01-29T08:14:40.825Z,6.55
2018-01-29T08:17:09.278Z,6.35
2018-01-29T08:19:36.837Z,7.82
2018-01-29T08:22:04.455Z,7.55
2018-01-29T08:24:32.008Z,8.13
2018-01-29T08:26:59.535Z,9.10
2018-01-29T08:29:27.202Z,7.03
2018-01-29T08:31:54.715Z,6.95
2018-01-29T08:34:22.303Z,8.98
2018-01-29T08:36:49.972Z,8.07
2018-01-29T08:39:17.595Z,9.93
2018-01-29T08:41:46.019Z,7.93
2018-01-29T08:44:13.654Z,8.68
2018-01-29T08:46:41.246Z,8.18
2018-01-29T08:49:08.854Z,7.65
2018-01-29T08:51:37.208Z,9.88
2018-01-29T08:54:04.771Z,7.95
2018-01-29T08:56:32.621Z,8.60
2018-01-29T08:59:00.196Z,6.90
2018-01-29T09:01:27.740Z,8.98
2018-01-29T09:03:55.335Z,8.23
2018-01-29T09:06:22.938Z,7.15
2018-01-29T09:08:50.554Z,7.93
2018-01-29T09:11:18.185Z,10.48
2018-01-29T09:13:45.739Z,9.73
2018-01-29T09:16:13.331Z,7.80
2018-01-29T09:18:41.178Z,7.87
2018-01-29T09:21:08.789Z,9.63
2018-01-29T09:23:36.359Z,8.70
2018-01-29T09:26:04.689Z,8.00
2018-01-29T09:28:32.440Z,8.02
2018-01-29T09:31:00.001Z,8.65
2018-01-29T09:33:27.603Z,7.12
2018-01-29T09:35:55.918Z,7.97
2018-01-29T09:38:23.503Z,8.77
2018-01-29T09:40:51.223Z,8.77
2018-01-29T09:43:18.819Z,8.43
2018-01-29T09:45:46.414Z,9.32
2018-01-29T09:48:14.780Z,7.68
2018-01-29T09:50:43.094Z,7.18
2018-01-29T09:53:11.757Z,9.77
2018-01-29T09:55:39.318Z,7.47
2018-01-29T09:58:07.480Z,8.65
2018-01-29T10:00:35.155Z,9.13
2018-01-29T10:03:03.482Z,7.37
2018-01-29T10:05:31.193Z,6.43
2018-01-29T10:07:58.821Z,7.60
2018-01-29T10:10:26.434Z,7.37
2018-01-29T10:12:54.007Z,7.97
2018-01-29T10:15:21.567Z,8.70
2018-01-29T10:17:49.876Z,7.72
2018-01-29T10:20:17.365Z,7.75
2018-01-29T10:22:44.961Z,9.38
2018-01-29T10:25:12.584Z,8.25
2018-01-29T10:27:40.706Z,8.52
2018-01-29T10:30:08.296Z,9.88
2018-01-29T10:32:35.877Z,9.02
2018-01-29T10:35:03.355Z,9.70
2018-01-29T10:37:30.965Z,8.93
2018-01-29T10:39:58.449Z,9.77
2018-01-29T10:42:26.179Z,7.68
2018-01-29T10:44:53.846Z,7.10
2018-01-29T10:47:21.515Z,8.00
2018-01-29T10:49:49.111Z,9.38
2018-01-29T10:52:16.884Z,8.20
2018-01-29T10:54:45.129Z,9.32
2018-01-29T10:57:12.706Z,7.60
2018-01-29T10:59:40.424Z,7.70
2018-01-29T11:02:07.983Z,6.72
2018-01-29T11:04:35.559Z,7.22
2018-01-29T11:07:03.115Z,7.60
2018-01-29T11:09:30.694Z,8.00
2018-01-29T11:11:58.277Z,8.23
2018-01-29T11:14:25.895Z,8.18
2018-01-29T11:16:55.001Z,6.45
2018-01-29T11:19:22.658Z,7.43
2018-01-29T11:21:50.370Z,6.90
2018-01-29T11:24:17.936Z,6.47
2018-01-29T11:26:46.329Z,8.40
2018-01-29T11:29:13.966Z,6.97
2018-01-29T11:31:41.581Z,6.30
2018-01-29T11:34:09.868Z,7.62
2018-01-29T11:36:37.397Z,7.30
2018-01-29T11:39:05.133Z,6.97
2018-01-29T11:41:33.354Z,5.75
2018-01-29T11:44:01.011Z,5.95
2018-01-29T11:46:28.675Z,6.37
2018-01-29T11:48:56.281Z,6.82
2018-01-29T11:51:23.863Z,7.50
2018-01-29T11:53:52.860Z,6.15
2018-01-29T11:56:20.644Z,7.78
2018-01-29T11:58:48.474Z,6.70
2018-01-29T12:01:16.838Z,6.12
2018-01-29T12:03:44.411Z,5.97
2018-01-29T12:06:12.805Z,6.57
2018-01-29T12:08:40.396Z,5.30
2018-01-29T12:11:07.969Z,6.07
2018-01-29T12:13:35.664Z,6.05
2018-01-29T12:16:04.846Z,5.30
2018-01-29T12:18:32.730Z,5.62
2018-01-29T12:21:00.333Z,5.95
2018-01-29T12:23:28.076Z,5.55
2018-01-29T12:25:55.625Z,5.97
2018-01-29T12:28:24.164Z,5.60
2018-01-29T12:30:51.904Z,7.53
2018-01-29T12:33:19.640Z,5.85
2018-01-29T12:35:47.994Z,6.80
2018-01-29T12:38:15.658Z,6.43
2018-01-29T12:40:44.046Z,4.90
2018-01-29T12:43:12.640Z,5.60
2018-01-29T12:45:40.185Z,6.40
2018-01-29T12:48:07.757Z,6.05
2018-01-29T12:50:36.302Z,5.40
2018-01-29T12:53:04.482Z,5.18
2018-01-29T12:55:32.056Z,5.45
2018-01-29T12:57:59.784Z,4.50
2018-01-29T13:00:27.365Z,5.75
2018-01-29T13:02:54.901Z,6.22
2018-01-29T13:05:22.398Z,5.05
2018-01-29T13:07:51.483Z,3.90
2018-01-29T13:10:19.048Z,5.65
2018-01-29T13:12:47.355Z,5.95
2018-01-29T13:15:15.667Z,5.25
2018-01-29T13:17:44.177Z,4.87
2018-01-29T13:20:11.805Z,8.30
2018-01-29T13:22:39.819Z,6.12
2018-01-29T13:25:07.500Z,4.87
2018-01-29T13:27:35.062Z,5.10
2018-01-29T13:30:02.706Z,6.53
2018-01-29T13:32:30.428Z,7.25
2018-01-29T13:34:58.032Z,3.70
2018-01-29T13:37:25.581Z,5.43
2018-01-29T13:39:54.061Z,4.07
2018-01-29T13:42:21.624Z,4.80
2018-01-29T13:44:49.178Z,4.82
2018-01-29T13:47:16.689Z,6.78
2018-01-29T13:49:44.976Z,5.70
2018-01-29T13:52:12.649Z,6.75
2018-01-29T13:54:40.234Z,5.35
2018-01-29T13:57:07.845Z,5.85
2018-01-29T13:59:35.304Z,6.85
2018-01-29T14:02:02.872Z,5.43
2018-01-29T14:04:30.416Z,6.15
2018-01-29T14:06:58.580Z,4.82
2018-01-29T14:09:26.881Z,5.25
2018-01-29T14:11:54.449Z,5.87
2018-01-29T14:14:22.127Z,4.82
2018-01-29T14:16:49.751Z,4.72
2018-01-29T14:19:17.592Z,4.57
2018-01-29T14:21:45.133Z,5.25
2018-01-29T14:24:12.708Z,7.87
2018-01-29T14:26:40.347Z,4.60
2018-01-29T14:29:07.934Z,4.53
2018-01-29T14:31:36.298Z,6.60
2018-01-29T14:34:03.853Z,6.00
2018-01-29T14:36:31.392Z,5.82
2018-01-29T14:38:59.073Z,5.50
2018-01-29T14:41:26.613Z,5.05
2018-01-29T14:43:54.296Z,5.93
2018-01-29T14:46:21.914Z,6.97
2018-01-29T14:48:49.527Z,5.70
2018-01-29T14:51:17.130Z,6.95
2018-01-29T14:53:44.680Z,5.57
2018-01-29T14:56:12.385Z,9.93
2018-01-29T14:58:39.993Z,4.10
2018-01-29T15:01:07.530Z,6.82
2018-01-29T15:03:35.099Z,7.60
2018-01-29T15:06:02.691Z,6.85
2018-01-29T15:08:30.251Z,5.20
2018-01-29T15:10:57.925Z,6.03
2018-01-29T15:13:25.546Z,5.78
2018-01-29T15:15:53.088Z,6.15
2018-01-29T15:18:20.726Z,6.25
2018-01-29T15:20:48.415Z,6.43
2018-01-29T15:23:16.374Z,5.90
2018-01-29T15:25:43.931Z,5.10
2018-01-29T15:28:11.528Z,6.80
2018-01-29T15:30:39.178Z,5.30
2018-01-29T15:33:06.806Z,4.87
2018-01-29T15:35:34.329Z,4.75
2018-01-29T15:38:01.883Z,5.80
2018-01-29T15:40:29.483Z,3.85
2018-01-29T15:42:57.510Z,4.85
2018-01-29T15:45:25.067Z,5.20
2018-01-29T15:47:52.697Z,4.60
2018-01-29T15:50:20.468Z,4.15
2018-01-29T15:52:48.096Z,4.57
2018-01-29T15:55:15.877Z,4.37
2018-01-29T15:57:43.464Z,6.40
2018-01-29T16:00:11.201Z,4.80
2018-01-29T16:02:38.783Z,4.68
2018-01-29T16:05:06.510Z,4.35
2018-01-29T16:07:34.103Z,5.95
2018-01-29T16:10:01.580Z,4.25
2018-01-29T16:12:29.098Z,3.30
2018-01-29T16:14:56.644Z,5.12
2018-01-29T16:17:24.231Z,4.68
2018-01-29T16:19:51.866Z,4.30
2018-01-29T16:22:19.758Z,4.10
2018-01-29T16:24:47.395Z,4.20
2018-01-29T16:27:14.984Z,6.25
2018-01-29T16:29:42.690Z,4.75
2018-01-29T16:32:11.065Z,5.40
2018-01-29T16:34:38.759Z,5.45
2018-01-29T16:37:06.320Z,5.68
2018-01-29T16:39:33.859Z,5.15
2018-01-29T16:42:01.491Z,4.78
2018-01-29T16:44:29.041Z,5.90
2018-01-29T16:46:56.945Z,5.97
2018-01-29T16:49:25.432Z,5.07
2018-01-29T16:51:53.030Z,7.15
2018-01-29T16:54:20.730Z,6.32
2018-01-29T16:56:48.330Z,5.53
2018-01-29T16:59:16.069Z,5.40
2018-01-29T17:01:43.661Z,6.90
2018-01-29T17:04:11.269Z,6.70
2018-01-29T17:06:39.531Z,5.55
2018-01-29T17:09:07.098Z,5.80
2018-01-29T17:11:34.707Z,5.03
2018-01-29T17:14:02.380Z,6.10
2018-01-29T17:16:29.899Z,5.10
2018-01-29T17:18:57.506Z,5.57
2018-01-29T17:21:25.061Z,6.00
2018-01-29T17:23:52.724Z,5.12
2018-01-29T17:26:20.241Z,5.60
2018-01-29T17:28:48.570Z,6.00
2018-01-29T17:31:16.144Z,6.00
2018-01-29T17:33:43.758Z,4.70
2018-01-29T17:36:11.244Z,5.18
2018-01-29T17:38:38.831Z,5.15
2018-01-29T17:41:06.428Z,6.32
2018-01-29T17:43:34.031Z,5.03
2018-01-29T17:46:01.687Z,5.22
2018-01-29T17:48:29.283Z,5.78
2018-01-29T17:50:56.883Z,4.57
2018-01-29T17:53:24.441Z,5.70
2018-01-29T17:55:52.934Z,5.00
2018-01-29T17:58:20.503Z,4.28
2018-01-29T18:00:48.096Z,7.43
2018-01-29T18:03:15.664Z,7.43
2018-01-29T18:05:43.162Z,5.22
2018-01-29T18:08:11.058Z,5.32
2018-01-29T18:10:38.627Z,5.40
2018-01-29T18:13:06.157Z,5.20
2018-01-29T18:15:33.696Z,12.60
2018-01-29T18:18:01.273Z,4.93
2018-01-29T18:20:28.858Z,5.97
2018-01-29T18:22:56.433Z,6.70
2018-01-29T18:25:24.061Z,5.30
2018-01-29T18:27:51.563Z,5.32
2018-01-29T18:30:19.139Z,6.68
2018-01-29T18:32:46.996Z,6.12
2018-01-29T18:35:14.840Z,5.75
2018-01-29T18:37:42.616Z,5.55
2018-01-29T18:40:11.847Z,5.87
2018-01-29T18:42:39.435Z,7.00
2018-01-29T18:45:07.081Z,6.47
2018-01-29T18:47:34.585Z,7.30
2018-01-29T18:50:02.806Z,7.80
2018-01-29T18:52:31.043Z,9.85
2018-01-29T18:54:58.583Z,8.00
2018-01-29T18:59:59.986Z,7.65
2018-01-29T19:02:28.667Z,5.62
2018-01-29T19:04:56.278Z,7.82
2018-01-29T19:07:23.855Z,7.25
2018-01-29T19:09:51.411Z,5.97
2018-01-29T19:12:18.966Z,7.50
2018-01-29T19:14:46.510Z,7.90
2018-01-29T19:17:14.044Z,7.30
2018-01-29T19:19:42.436Z,7.03
2018-01-29T19:22:10.129Z,7.47
2018-01-29T19:24:37.684Z,6.78
2018-01-29T19:27:05.198Z,6.10
2018-01-29T19:29:32.873Z,7.90
2018-01-29T19:32:00.508Z,8.35
2018-01-29T19:34:28.070Z,7.28
2018-01-29T19:36:56.482Z,6.65
2018-01-29T19:39:23.974Z,10.27
2018-01-29T19:41:51.533Z,9.10
2018-01-29T19:44:19.049Z,6.55
2018-01-29T19:46:46.558Z,7.57
2018-01-29T19:49:14.100Z,7.30
2018-01-29T19:51:41.719Z,6.72
2018-01-29T19:54:09.962Z,9.93
2018-01-29T19:56:37.538Z,7.07
2018-01-29T19:59:05.536Z,6.50
2018-01-29T20:01:33.843Z,5.97
2018-01-29T20:04:01.449Z,8.55
2018-01-29T20:06:28.999Z,8.15
2018-01-29T20:08:56.530Z,6.90
2018-01-29T20:11:23.997Z,6.45
2018-01-29T20:13:51.593Z,8.57
2018-01-29T20:16:19.245Z,7.00
2018-01-29T20:18:48.352Z,7.10
2018-01-29T20:21:16.671Z,8.20
2018-01-29T20:23:44.227Z,9.07
2018-01-29T20:26:11.740Z,7.20
2018-01-29T20:28:39.282Z,7.07
2018-01-29T20:31:08.500Z,6.90
2018-01-29T20:33:36.231Z,5.47
2018-01-29T20:36:03.794Z,6.55
2018-01-29T20:38:31.338Z,6.25
2018-01-29T20:40:59.006Z,6.78
2018-01-29T20:43:26.575Z,5.95
2018-01-29T20:45:54.075Z,5.65
2018-01-29T20:48:22.577Z,6.80
2018-01-29T20:50:50.116Z,7.10
2018-01-29T20:53:17.903Z,6.37
2018-01-29T20:55:45.496Z,5.85
2018-01-29T20:58:13.017Z,6.93
2018-01-29T21:00:40.624Z,10.20
2018-01-29T21:03:08.134Z,7.43
2018-01-29T21:05:36.445Z,7.80
2018-01-29T21:08:03.937Z,8.07
2018-01-29T21:10:31.428Z,8.07
2018-01-29T21:12:58.948Z,5.75
2018-01-29T21:15:26.555Z,7.43
2018-01-29T21:17:54.003Z,9.07
2018-01-29T21:20:22.334Z,6.62
2018-01-29T21:22:49.897Z,6.82
2018-01-29T21:25:17.452Z,4.93
2018-01-29T21:27:44.989Z,6.40
2018-01-29T21:30:12.583Z,6.57
2018-01-29T21:32:41.002Z,5.97
2018-01-29T21:35:08.585Z,6.00
2018-01-29T21:37:37.090Z,5.30
2018-01-29T21:40:04.680Z,6.40
2018-01-29T21:42:32.249Z,6.05
2018-01-29T21:45:00.531Z,6.15
2018-01-29T21:47:28.858Z,7.22
2018-01-29T21:49:56.424Z,5.47
2018-01-29T21:52:24.087Z,5.03
2018-01-29T21:54:52.319Z,6.47
2018-01-29T21:57:19.906Z,5.87
2018-01-29T21:59:47.461Z,5.20
2018-01-29T22:02:15.048Z,5.40
2018-01-29T22:04:42.646Z,6.30
2018-01-29T22:07:11.202Z,7.32
2018-01-29T22:09:38.759Z,6.25
2018-01-29T22:12:06.291Z,7.20
2018-01-29T22:14:34.100Z,5.72
2018-01-29T22:17:01.597Z,5.62
2018-01-29T22:19:29.205Z,6.28
2018-01-29T22:21:56.731Z,6.72
2018-01-29T22:24:24.245Z,6.85
2018-01-29T22:26:51.790Z,5.95
2018-01-29T22:29:20.099Z,6.53
2018-01-29T22:31:47.656Z,6.15
2018-01-29T22:34:15.201Z,6.43
2018-01-29T22:36:43.518Z,5.57
2018-01-29T22:39:11.029Z,6.45
2018-01-29T22:41:38.571Z,6.65
2018-01-29T22:44:06.101Z,5.10
2018-01-29T22:46:33.652Z,5.90
2018-01-29T22:49:01.353Z,4.87
2018-01-29T22:51:28.922Z,5.07
2018-01-29T22:53:56.497Z,4.85
2018-01-29T22:56:24.258Z,5.20
2018-01-29T22:58:51.811Z,5.65
2018-01-29T23:01:19.268Z,5.60
2018-01-29T23:03:46.755Z,4.82
2018-01-29T23:06:14.344Z,5.55
2018-01-29T23:08:41.979Z,5.40
2018-01-29T23:11:09.508Z,5.28
2018-01-29T23:13:37.151Z,5.12
2018-01-29T23:16:04.693Z,5.00
2018-01-29T23:18:32.216Z,6.50
2018-01-29T23:20:59.931Z,6.68
2018-01-29T23:23:27.471Z,5.15
2018-01-29T23:25:55.254Z,5.55
2018-01-29T23:28:23.760Z,3.85
2018-01-29T23:30:52.142Z,5.00
2018-01-29T23:33:19.730Z,3.33
2018-01-29T23:35:47.459Z,5.20
2018-01-29T23:38:15.034Z,4.72
2018-01-29T23:40:43.344Z,4.82
2018-01-29T23:43:10.919Z,4.85
2018-01-29T23:45:38.478Z,5.50
2018-01-29T23:48:06.068Z,4.37
2018-01-29T23:50:33.653Z,5.85
2018-01-29T23:53:01.195Z,6.20
2018-01-29T23:55:28.665Z,5.80
2018-01-29T23:57:56.985Z,5.30
